Main page
METAR-TAF:

METAR-TAF

Airports :

Millard Airport

Omaha, Nebraska, United States

latitude: 41-11-45N, longitude: 096-06-44W, elevation: 1050 ft

Current weather observation

The report was made 34 minutes ago, at 05:55 UTC
Wind 10 mph from the Southeast
Temperature 73°F
Humidity 65%
Pressure 29.57 in. Hg
Visibility: 10 miles
Overcast at a height of 3500 ft

METAR: KMLE 240555Z AUTO 13009KT 10SM OVC035 23/16 A2957 RMK AO2 LTG DSNT W T02250164 10253 20223

Time: 01:29 (06:29 UTC)


TAF: missing

Weather observations and forecasts of more than 4000 airports (METAR and TAF reports).

The available stations are represented by yellow and red dots on the map.

Hover mouse over dot to see the name of the station.

Then click to see weather observations and forecasts.

To change the map : click on the green buttons with a black cross to zoom in, on the green button with a dash to zoom out, or on the green arrows for adjacent maps.


METAR-TAF: